»·PEaware :: DAL2954 KSLC-KSEA

DAL2954 :: KSLC-KSEA

FLIGHT INFORMATION

Flight Status: Arrived
Operator:
Delta Air Lines
More flights by this operator :: More flights under this callsign
Pilot: Joe P. (13940)
Aircraft: BOEING 737-700
(B737)
More flights by this aircraft type
Origin: KSLC Salt Lake City Intl
United States
Destination: KSEA Seattle-Tacoma Intl
United States
More flights between these airports :: More routes between these airports
Route: CGULL1 TWF J15 BOI PDT CHINS3
File this flight plan on PilotEdge
Remarks: KPDX -PBN / A1B1C1D1L1O1S1 NAV / RNVD1E2A1 DOF / 180815 REG / N389DA EET / KZSE0054 RVR / 200 PER / C
Altitude:
(Current/Filed)
340ft
Speed:
(Current/Filed)
460kts
Departed: 15-Aug-18 05:49 AM
Arrived: 15-Aug-18 07:26 AM
Distance/Time
Traveled:
597nm/1:37
Distance/Time
To Go:
Arrived

Flight Plot

Page will automatically refresh every two minutes.

Flight plan parsing failed; only flown route is shown


Map Options




Map Legend


Flown Route
Filed Route
Departure Airport
Arrival Airport
Navaid (VOR, NDB)
Fix

Horizontal Profiles

Position Reports

Time Latitude Longitude Heading Altitude Ground
Speed
15-Aug-18 05:12 40.789075 -111.985536 130 4235ft 0kts
15-Aug-18 05:13 40.789075 -111.985536 130 4235ft 0kts
15-Aug-18 05:14 40.789075 -111.985536 130 4235ft 0kts
15-Aug-18 05:15 40.789075 -111.985536 130 4235ft 0kts
15-Aug-18 05:16 40.789075 -111.985536 130 4235ft 0kts
15-Aug-18 05:17 40.789075 -111.985536 130 4235ft 0kts
15-Aug-18 05:18 40.789075 -111.985536 130 4235ft 0kts
15-Aug-18 05:19 40.789075 -111.985536 130 4235ft 0kts
15-Aug-18 05:20 40.789075 -111.985536 130 4235ft 0kts
15-Aug-18 05:21 40.789075 -111.985536 130 4235ft 0kts
15-Aug-18 05:22 40.789075 -111.985536 130 4235ft 0kts
15-Aug-18 05:23 40.789075 -111.985536 130 4235ft 0kts
15-Aug-18 05:24 40.789075 -111.985536 130 4235ft 0kts
15-Aug-18 05:25 40.789075 -111.985536 130 4235ft 0kts
15-Aug-18 05:26 40.789075 -111.985536 130 4235ft 0kts
15-Aug-18 05:27 40.789075 -111.985536 130 4235ft 0kts
15-Aug-18 05:28 40.789075 -111.985536 130 4235ft 0kts
15-Aug-18 05:29 40.789075 -111.985536 130 4235ft 0kts
15-Aug-18 05:30 40.789075 -111.985536 130 4235ft 0kts
15-Aug-18 05:31 40.789075 -111.985536 130 4235ft 0kts
15-Aug-18 05:32 40.789075 -111.985536 130 4235ft 0kts
15-Aug-18 05:33 40.789075 -111.985536 130 4235ft 0kts
15-Aug-18 05:34 40.789075 -111.985536 130 4235ft 0kts
15-Aug-18 05:35 40.789075 -111.985536 130 4235ft 0kts
15-Aug-18 05:36 40.789075 -111.985536 130 4235ft 0kts
15-Aug-18 05:37 40.789075 -111.985536 130 4235ft 0kts
15-Aug-18 05:38 40.789075 -111.985536 130 4235ft 0kts
15-Aug-18 05:39 40.789081 -111.985545 130 4234ft 0kts
15-Aug-18 05:40 40.789537 -111.986094 159 4234ft 2kts
15-Aug-18 05:41 40.789827 -111.985926 238 4234ft 0kts
15-Aug-18 05:42 40.789826 -111.985926 238 4234ft 0kts
15-Aug-18 05:43 40.789826 -111.985927 238 4234ft 0kts
15-Aug-18 05:44 40.788768 -111.988308 244 4234ft 18kts
15-Aug-18 05:45 40.789178 -111.993801 351 4234ft 15kts
15-Aug-18 05:46 40.795416 -111.994711 354 4234ft 25kts
15-Aug-18 05:47 40.800625 -111.995316 354 4234ft 17kts
15-Aug-18 05:48 40.806253 -111.996059 348 4234ft 19kts
15-Aug-18 05:49 40.807280 -111.999259 170 4234ft 0kts
15-Aug-18 05:50 40.789483 -111.997195 175 4244ft 171kts
15-Aug-18 05:51 40.757374 -112.032194 281 6739ft 208kts
15-Aug-18 05:52 40.812732 -112.085504 330 8176ft 289kts
15-Aug-18 05:53 40.875119 -112.156335 313 11054ft 306kts
15-Aug-18 05:54 40.940557 -112.246418 312 12405ft 367kts
15-Aug-18 05:55 41.012682 -112.346437 312 14894ft 381kts
15-Aug-18 05:56 41.090842 -112.443919 324 17243ft 394kts
15-Aug-18 05:57 41.184756 -112.523914 322 19415ft 406kts
15-Aug-18 05:58 41.275097 -112.618120 317 21308ft 418kts
15-Aug-18 05:59 41.355314 -112.732527 311 23010ft 428kts
15-Aug-18 06:00 41.435493 -112.852094 309 24505ft 438kts
15-Aug-18 06:01 41.516018 -112.975850 309 25914ft 446kts
15-Aug-18 06:02 41.597757 -113.101996 309 27216ft 453kts
15-Aug-18 06:03 41.681195 -113.230397 309 28401ft 459kts
15-Aug-18 06:04 41.765111 -113.360211 309 29757ft 459kts
15-Aug-18 06:05 41.848085 -113.489359 309 31220ft 456kts
15-Aug-18 06:06 41.930538 -113.618313 308 32620ft 454kts
15-Aug-18 06:07 42.012570 -113.746699 308 33938ft 451kts
15-Aug-18 06:08 42.094296 -113.875878 308 34101ft 452kts
15-Aug-18 06:09 42.175656 -114.005037 308 34101ft 451kts
15-Aug-18 06:10 42.256864 -114.133734 308 34102ft 451kts
15-Aug-18 06:11 42.338454 -114.262784 308 34101ft 451kts
15-Aug-18 06:12 42.419477 -114.392426 308 34100ft 452kts
15-Aug-18 06:13 42.501080 -114.522537 309 34118ft 452kts
15-Aug-18 06:14 42.583962 -114.650749 309 34122ft 453kts
15-Aug-18 06:15 42.666520 -114.779396 309 34123ft 453kts
15-Aug-18 06:16 42.749588 -114.908716 309 34129ft 453kts
15-Aug-18 06:17 42.832343 -115.037974 309 34127ft 453kts
15-Aug-18 06:18 42.914866 -115.167752 309 34117ft 453kts
15-Aug-18 06:19 42.997293 -115.298053 309 34102ft 453kts
15-Aug-18 06:20 43.079682 -115.428916 308 34080ft 453kts
15-Aug-18 06:21 43.161723 -115.559811 308 34066ft 453kts
15-Aug-18 06:22 43.243843 -115.691391 308 34062ft 453kts
15-Aug-18 06:23 43.325481 -115.822950 308 34060ft 453kts
15-Aug-18 06:24 43.407415 -115.954912 308 34051ft 452kts
15-Aug-18 06:25 43.488545 -116.087006 308 34038ft 453kts
15-Aug-18 06:26 43.572697 -116.216702 315 34030ft 455kts
15-Aug-18 06:27 43.667644 -116.332593 316 34030ft 455kts
15-Aug-18 06:28 43.762241 -116.448655 316 34032ft 455kts
15-Aug-18 06:29 43.857059 -116.565066 316 34035ft 455kts
15-Aug-18 06:30 43.951692 -116.681618 316 34043ft 456kts
15-Aug-18 06:31 44.046270 -116.798853 316 34043ft 456kts
15-Aug-18 06:32 44.141009 -116.916905 315 34043ft 456kts
15-Aug-18 06:33 44.235435 -117.035134 315 34049ft 457kts
15-Aug-18 06:34 44.329987 -117.154066 315 34062ft 457kts
15-Aug-18 06:35 44.408525 -117.253269 315 34076ft 457kts
15-Aug-18 06:36 44.518703 -117.393072 315 34094ft 458kts
15-Aug-18 06:37 44.612864 -117.513144 315 34104ft 458kts
15-Aug-18 06:38 44.691437 -117.613760 315 34108ft 458kts
15-Aug-18 06:39 44.800926 -117.754625 315 34110ft 458kts
15-Aug-18 06:40 44.879272 -117.855875 315 34110ft 458kts
15-Aug-18 06:41 44.973214 -117.977801 314 34109ft 458kts
15-Aug-18 06:42 45.066933 -118.100003 314 34111ft 460kts
15-Aug-18 06:43 45.160993 -118.223244 314 34112ft 460kts
15-Aug-18 06:44 45.254928 -118.346889 314 34114ft 460kts
15-Aug-18 06:45 45.348620 -118.470805 314 34105ft 460kts
15-Aug-18 06:46 45.442020 -118.594917 313 34101ft 460kts
15-Aug-18 06:47 45.535602 -118.719397 313 34075ft 460kts
15-Aug-18 06:48 45.628973 -118.844952 313 34025ft 461kts
15-Aug-18 06:49 45.720382 -118.973027 308 34000ft 458kts
15-Aug-18 06:50 45.802026 -119.112790 306 33982ft 458kts
15-Aug-18 06:51 45.883916 -119.252936 306 33970ft 458kts
15-Aug-18 06:52 45.965926 -119.392446 306 33970ft 458kts
15-Aug-18 06:53 46.048223 -119.532510 306 33970ft 458kts
15-Aug-18 06:54 46.129792 -119.673300 305 33971ft 457kts
15-Aug-18 06:55 46.211226 -119.814335 305 33972ft 457kts
15-Aug-18 06:56 46.292480 -119.955820 305 33975ft 457kts
15-Aug-18 06:57 46.373843 -120.098106 305 33981ft 458kts
15-Aug-18 06:58 46.455148 -120.240481 305 33987ft 458kts
15-Aug-18 06:59 46.535725 -120.383282 305 33989ft 458kts
15-Aug-18 07:00 46.611850 -120.529228 299 33419ft 436kts
15-Aug-18 07:01 46.681114 -120.675657 300 30769ft 441kts
15-Aug-18 07:02 46.750014 -120.821516 300 28646ft 431kts
15-Aug-18 07:03 46.817180 -120.964184 301 26591ft 422kts
15-Aug-18 07:04 46.883376 -121.105447 301 23892ft 428kts
15-Aug-18 07:05 46.952089 -121.251548 301 20416ft 436kts
15-Aug-18 07:06 47.015673 -121.388725 301 18417ft 384kts
15-Aug-18 07:07 47.073735 -121.514542 301 17114ft 353kts
15-Aug-18 07:08 47.126313 -121.628272 300 16579ft 332kts
15-Aug-18 07:09 47.177096 -121.739326 300 15440ft 320kts
15-Aug-18 07:10 47.226318 -121.846776 301 14490ft 315kts
15-Aug-18 07:11 47.274856 -121.953290 301 13587ft 312kts
15-Aug-18 07:12 47.324322 -122.062808 301 12679ft 324kts
15-Aug-18 07:13 47.387699 -122.142357 353 11828ft 312kts
15-Aug-18 07:14 47.472347 -122.144923 357 10815ft 295kts
15-Aug-18 07:15 47.552815 -122.147507 357 9035ft 287kts
15-Aug-18 07:16 47.632535 -122.151059 357 7035ft 284kts
15-Aug-18 07:17 47.710263 -122.154996 357 5185ft 273kts
15-Aug-18 07:18 47.760648 -122.201754 279 4967ft 215kts
15-Aug-18 07:19 47.763610 -122.287300 236 4164ft 213kts
15-Aug-18 07:20 47.711196 -122.306735 179 3977ft 191kts
15-Aug-18 07:21 47.663157 -122.306142 180 3941ft 160kts
15-Aug-18 07:22 47.618131 -122.306441 180 3423ft 160kts
15-Aug-18 07:23 47.573690 -122.306828 180 2570ft 158kts
15-Aug-18 07:24 47.530332 -122.307207 179 1739ft 152kts
15-Aug-18 07:25 47.488286 -122.307575 179 939ft 149kts
15-Aug-18 07:26 47.449632 -122.307933 180 441ft 74kts
15-Aug-18 07:27 47.445959 -122.307174 122 441ft 0kts
15-Aug-18 07:28 47.445883 -122.306967 118 441ft 6kts
15-Aug-18 07:29 47.441803 -122.306377 179 441ft 16kts
15-Aug-18 07:30 47.439911 -122.304973 91 441ft 9kts
15-Aug-18 07:31 47.440251 -122.300827 102 441ft 5kts
15-Aug-18 07:32 47.440555 -122.300056 47 441ft 0kts
15-Aug-18 07:33 47.440555 -122.300056 47 441ft 0kts
15-Aug-18 07:34 47.440555 -122.300056 47 441ft 0kts
15-Aug-18 07:35 47.440555 -122.300056 47 441ft 0kts
15-Aug-18 07:36 47.440555 -122.300056 47 441ft 0kts
15-Aug-18 07:37 47.440555 -122.300056 47 441ft 0kts
15-Aug-18 07:38 47.440555 -122.300056 47 441ft 0kts
15-Aug-18 07:39 47.440555 -122.300056 47 441ft 0kts
15-Aug-18 07:40 47.440555 -122.300056 47 441ft 0kts
15-Aug-18 07:41 47.440555 -122.300056 47 441ft 0kts

Navigation Log

Ident Type
Flight plan parsing failed, navigation log unavailable